createdAt,value
2022-10-11T00:01:15.072Z,99.90
2022-10-11T00:04:00.624Z,99.90
2022-10-11T00:06:47.319Z,99.90
2022-10-11T00:09:32.600Z,99.90
2022-10-11T00:12:17.935Z,99.90
2022-10-11T00:15:05.872Z,99.90
2022-10-11T00:17:51.381Z,99.90
2022-10-11T00:20:37.022Z,99.90
2022-10-11T00:23:22.474Z,99.90
2022-10-11T00:26:11.638Z,99.90
2022-10-11T00:28:57.186Z,99.90
2022-10-11T00:31:42.659Z,99.90
2022-10-11T00:34:28.248Z,99.90
2022-10-11T00:37:13.955Z,99.90
2022-10-11T00:39:59.504Z,99.90
2022-10-11T00:42:44.905Z,99.90
2022-10-11T00:45:30.033Z,99.90
2022-10-11T00:48:27.529Z,99.90
2022-10-11T00:51:36.118Z,99.90
2022-10-11T00:54:25.409Z,99.90
2022-10-11T00:57:14.033Z,99.90
2022-10-11T01:00:00.402Z,99.90
2022-10-11T01:02:46.367Z,99.90
2022-10-11T01:05:32.289Z,99.90
2022-10-11T01:08:18.231Z,99.90
2022-10-11T01:11:04.335Z,99.90
2022-10-11T01:14:11.088Z,99.90
2022-10-11T01:17:07.253Z,99.90
2022-10-11T01:20:04.481Z,99.90
2022-10-11T01:23:18.276Z,99.90
2022-10-11T01:26:21.745Z,99.90
2022-10-11T01:29:25.599Z,99.90
2022-10-11T01:32:22.328Z,99.90
2022-10-11T01:35:26.907Z,99.90
2022-10-11T01:38:18.314Z,99.90
2022-10-11T01:41:15.524Z,99.90
2022-10-11T01:44:02.482Z,99.90
2022-10-11T01:46:48.180Z,99.90
2022-10-11T01:49:33.694Z,99.90
2022-10-11T01:52:19.313Z,99.90
2022-10-11T01:55:21.707Z,99.90
2022-10-11T01:58:19.314Z,99.90
2022-10-11T02:01:26.790Z,99.90
2022-10-11T02:04:29.372Z,99.90
2022-10-11T02:07:45.478Z,99.90
2022-10-11T02:10:36.358Z,99.90
2022-10-11T02:13:46.124Z,99.90
2022-10-11T02:16:43.606Z,99.90
2022-10-11T02:19:33.416Z,99.90
2022-10-11T02:22:28.427Z,99.90
2022-10-11T02:25:20.126Z,99.90
2022-10-11T02:28:11.574Z,99.90
2022-10-11T02:30:59.556Z,99.90
2022-10-11T02:34:02.611Z,99.90
2022-10-11T02:36:48.094Z,99.90
2022-10-11T02:39:55.241Z,99.90
2022-10-11T02:42:46.965Z,99.90
2022-10-11T02:45:42.210Z,99.90
2022-10-11T02:48:29.397Z,99.90
2022-10-11T02:51:14.876Z,99.90
2022-10-11T02:54:00.394Z,99.90
2022-10-11T02:56:45.841Z,99.90
2022-10-11T02:59:31.082Z,99.90
2022-10-11T03:02:16.632Z,99.90
2022-10-11T03:05:02.223Z,99.90
2022-10-11T03:07:47.491Z,99.90
2022-10-11T03:10:33.970Z,99.90
2022-10-11T03:13:19.436Z,99.90
2022-10-11T03:16:05.135Z,99.90
2022-10-11T03:18:50.724Z,99.90
2022-10-11T03:21:36.655Z,99.90
2022-10-11T03:24:21.972Z,99.90
2022-10-11T03:27:07.467Z,99.90
2022-10-11T03:29:52.847Z,99.90
2022-10-11T03:32:38.635Z,99.90
2022-10-11T03:35:24.002Z,99.90
2022-10-11T03:38:13.092Z,99.90
2022-10-11T03:40:58.673Z,99.90
2022-10-11T03:43:44.534Z,99.90
2022-10-11T03:46:30.060Z,99.90
2022-10-11T03:49:15.617Z,99.90
2022-10-11T03:52:01.520Z,99.90
2022-10-11T03:54:46.825Z,99.90
2022-10-11T03:57:32.594Z,99.90
2022-10-11T04:00:18.397Z,99.90
2022-10-11T04:03:04.006Z,99.90
2022-10-11T04:05:49.585Z,99.90
2022-10-11T04:08:35.212Z,99.90
2022-10-11T04:11:20.564Z,99.90
2022-10-11T04:14:06.169Z,99.90
2022-10-11T04:16:51.625Z,99.90
2022-10-11T04:19:37.500Z,99.90
2022-10-11T04:22:22.712Z,99.90
2022-10-11T04:25:09.226Z,99.90
2022-10-11T04:27:54.920Z,99.90
2022-10-11T04:30:40.443Z,99.90
2022-10-11T04:33:26.129Z,99.90
2022-10-11T04:36:11.515Z,99.90
2022-10-11T04:38:56.949Z,99.90
2022-10-11T04:41:42.552Z,99.90
2022-10-11T04:44:28.320Z,99.90
2022-10-11T04:47:13.900Z,99.90
2022-10-11T04:49:59.064Z,99.90
2022-10-11T04:52:44.505Z,99.90
2022-10-11T04:55:29.933Z,99.90
2022-10-11T04:58:15.551Z,99.90
2022-10-11T05:01:01.372Z,99.90
2022-10-11T05:03:46.536Z,99.90
2022-10-11T05:06:32.159Z,99.90
2022-10-11T05:09:17.481Z,99.90
2022-10-11T05:12:03.194Z,99.90
2022-10-11T05:14:48.576Z,99.90
2022-10-11T05:17:34.180Z,99.90
2022-10-11T05:20:19.393Z,99.90
2022-10-11T05:23:04.852Z,99.90
2022-10-11T05:25:50.297Z,99.90
2022-10-11T05:28:36.128Z,99.90
2022-10-11T05:31:21.898Z,99.90
2022-10-11T05:34:07.594Z,99.90
2022-10-11T05:36:52.675Z,99.90
2022-10-11T05:39:38.208Z,99.90
2022-10-11T05:42:23.762Z,99.90
2022-10-11T05:45:09.656Z,99.90
2022-10-11T05:47:55.190Z,99.90
2022-10-11T05:50:40.504Z,99.90
2022-10-11T05:53:26.442Z,99.90
2022-10-11T05:56:24.234Z,99.90
2022-10-11T05:59:09.833Z,99.90
2022-10-11T06:01:55.520Z,99.90
2022-10-11T06:04:40.939Z,99.90
2022-10-11T06:07:26.557Z,99.90
2022-10-11T06:10:12.741Z,99.90
2022-10-11T06:12:58.866Z,99.90
2022-10-11T06:15:44.518Z,99.90
2022-10-11T06:18:31.033Z,99.90
2022-10-11T06:21:16.593Z,99.90
2022-10-11T06:24:02.642Z,99.90
2022-10-11T06:26:49.627Z,99.90
2022-10-11T06:29:35.819Z,99.90
2022-10-11T06:32:21.348Z,99.90
2022-10-11T06:35:07.545Z,99.90
2022-10-11T06:37:52.949Z,99.90
2022-10-11T06:40:38.705Z,99.90
2022-10-11T06:43:25.328Z,99.90
2022-10-11T06:46:11.114Z,99.90
2022-10-11T06:48:56.734Z,99.90
2022-10-11T06:51:41.919Z,99.90
2022-10-11T06:54:27.505Z,99.90
2022-10-11T06:57:13.151Z,99.90
2022-10-11T06:59:58.327Z,99.90
2022-10-11T07:02:43.829Z,99.90
2022-10-11T07:05:31.747Z,99.90
2022-10-11T07:08:17.296Z,99.90
2022-10-11T07:11:14.272Z,99.90
2022-10-11T07:14:04.429Z,99.90
2022-10-11T07:16:49.614Z,99.90
2022-10-11T07:19:35.419Z,99.90
2022-10-11T07:22:20.733Z,99.90
2022-10-11T07:25:06.854Z,99.90
2022-10-11T07:27:52.389Z,99.90
2022-10-11T07:30:42.175Z,99.90
2022-10-11T07:33:27.596Z,99.90
2022-10-11T07:36:13.619Z,99.90
2022-10-11T07:38:59.092Z,99.90
2022-10-11T07:41:46.087Z,99.90
2022-10-11T07:44:32.046Z,99.90
2022-10-11T07:47:17.363Z,99.90
2022-10-11T07:50:02.998Z,99.90
2022-10-11T07:52:48.249Z,99.90
2022-10-11T07:55:40.261Z,99.90
2022-10-11T07:58:25.864Z,99.90
2022-10-11T08:01:12.090Z,99.90
2022-10-11T08:03:57.813Z,99.90
2022-10-11T08:06:43.414Z,99.90
2022-10-11T08:09:29.112Z,99.90
2022-10-11T08:12:14.782Z,99.90
2022-10-11T08:15:00.925Z,99.90
2022-10-11T08:17:47.238Z,99.90
2022-10-11T08:20:33.181Z,99.90
2022-10-11T08:23:19.148Z,99.90
2022-10-11T08:26:04.711Z,99.90
2022-10-11T08:28:50.466Z,99.90
2022-10-11T08:31:35.954Z,99.80
2022-10-11T08:34:21.510Z,96.40
2022-10-11T08:37:07.193Z,85.40
2022-10-11T08:39:52.652Z,87.70
2022-10-11T08:43:06.682Z,89.20
2022-10-11T08:45:56.038Z,88.90
2022-10-11T08:48:46.941Z,92.70
2022-10-11T08:51:41.916Z,93.50
2022-10-11T08:54:35.103Z,93.50
2022-10-11T08:57:22.800Z,96.00
2022-10-11T09:00:14.514Z,94.00
2022-10-11T09:03:21.681Z,92.40
2022-10-11T09:06:40.858Z,91.10
2022-10-11T09:09:26.707Z,94.90
2022-10-11T09:13:10.823Z,93.70
2022-10-11T09:16:28.647Z,95.70
2022-10-11T09:19:20.164Z,95.40
2022-10-11T09:23:02.502Z,85.10
2022-10-11T09:26:23.140Z,89.10
2022-10-11T09:29:27.211Z,82.30
2022-10-11T09:32:20.902Z,78.40
2022-10-11T09:35:18.866Z,78.80
2022-10-11T09:38:28.952Z,80.50
2022-10-11T09:41:35.233Z,80.10
2022-10-11T09:44:25.110Z,78.60
2022-10-11T09:47:16.379Z,78.50
2022-10-11T09:50:18.774Z,74.50
2022-10-11T09:53:07.952Z,69.00
2022-10-11T09:56:04.135Z,67.70
2022-10-11T09:59:05.824Z,65.00
2022-10-11T10:02:16.662Z,63.90
2022-10-11T10:05:11.050Z,60.40
2022-10-11T10:08:20.284Z,55.80
2022-10-11T10:11:07.626Z,59.50
2022-10-11T10:13:56.070Z,58.20
2022-10-11T10:16:41.571Z,61.40
2022-10-11T10:19:26.994Z,55.80
2022-10-11T10:22:27.298Z,51.80
2022-10-11T10:25:29.899Z,52.30
2022-10-11T10:28:22.724Z,53.80
2022-10-11T10:31:22.443Z,51.70
2022-10-11T10:34:33.266Z,52.70
2022-10-11T10:37:29.241Z,51.60
2022-10-11T10:40:22.503Z,57.10
2022-10-11T10:43:15.638Z,56.60
2022-10-11T10:46:22.304Z,59.40
2022-10-11T10:49:52.564Z,56.20
2022-10-11T10:52:40.231Z,58.70
2022-10-11T10:55:45.067Z,52.40
2022-10-11T10:58:50.975Z,50.00
2022-10-11T11:01:50.170Z,49.00
2022-10-11T11:04:36.459Z,48.70
2022-10-11T11:07:45.937Z,48.20
2022-10-11T11:10:42.448Z,52.90
2022-10-11T11:13:30.692Z,49.40
2022-10-11T11:16:31.395Z,48.80
2022-10-11T11:19:38.543Z,43.00
2022-10-11T11:22:52.075Z,47.30
2022-10-11T11:25:44.652Z,45.50
2022-10-11T11:28:36.418Z,45.30
2022-10-11T11:31:53.858Z,45.00
2022-10-11T11:34:44.331Z,42.00
2022-10-11T11:37:37.268Z,40.00
2022-10-11T11:40:35.307Z,35.70
2022-10-11T11:43:32.702Z,38.30
2022-10-11T11:46:23.346Z,40.70
2022-10-11T11:49:18.111Z,38.80
2022-10-11T11:52:06.781Z,42.00
2022-10-11T11:55:03.779Z,42.60
2022-10-11T11:58:16.466Z,43.60
2022-10-11T12:01:15.832Z,42.60
2022-10-11T12:04:36.053Z,42.40
2022-10-11T12:07:24.055Z,40.90
2022-10-11T12:10:27.074Z,41.90
2022-10-11T12:13:34.834Z,40.40
2022-10-11T12:16:21.976Z,40.50
2022-10-11T12:19:14.335Z,41.10
2022-10-11T12:22:18.289Z,38.60
2022-10-11T12:25:11.218Z,41.20
2022-10-11T12:28:02.545Z,40.90
2022-10-11T12:30:48.018Z,40.60
2022-10-11T12:33:33.350Z,39.40
2022-10-11T12:36:28.740Z,38.20
2022-10-11T12:39:20.312Z,36.20
2022-10-11T12:42:24.692Z,38.30
2022-10-11T12:45:13.423Z,35.20
2022-10-11T12:48:17.505Z,35.10
2022-10-11T12:51:03.714Z,34.20
2022-10-11T12:54:25.407Z,35.20
2022-10-11T12:57:11.879Z,34.10
2022-10-11T13:00:17.771Z,35.00
2022-10-11T13:03:26.208Z,36.10
2022-10-11T13:06:26.981Z,35.70
2022-10-11T13:09:25.785Z,37.20
2022-10-11T13:12:18.010Z,34.10
2022-10-11T13:15:09.767Z,35.90
2022-10-11T13:18:00.503Z,36.20
2022-10-11T13:20:47.315Z,34.80
2022-10-11T13:23:38.600Z,35.50
2022-10-11T13:26:26.258Z,34.60
2022-10-11T13:29:16.992Z,34.80
2022-10-11T13:32:11.659Z,32.70
2022-10-11T13:35:02.808Z,32.40
2022-10-11T13:37:49.554Z,36.00
2022-10-11T13:40:37.469Z,31.90
2022-10-11T13:43:27.376Z,31.60
2022-10-11T13:46:22.318Z,31.70
2022-10-11T13:49:37.577Z,33.70
2022-10-11T13:52:24.660Z,35.90
2022-10-11T13:55:21.892Z,36.90
2022-10-11T13:58:18.903Z,36.70
2022-10-11T14:01:20.068Z,37.30
2022-10-11T14:04:08.881Z,38.00
2022-10-11T14:06:59.357Z,37.60
2022-10-11T14:09:47.115Z,38.20
2022-10-11T14:12:44.388Z,39.00
2022-10-11T14:15:38.055Z,39.40
2022-10-11T14:18:42.871Z,40.10
2022-10-11T14:21:34.718Z,41.20
2022-10-11T14:24:21.042Z,42.30
2022-10-11T14:27:10.260Z,42.50
2022-10-11T14:30:23.458Z,44.40
2022-10-11T14:33:02.656Z,45.30
2022-10-11T14:35:48.099Z,44.60
2022-10-11T14:38:33.484Z,43.60
2022-10-11T14:41:19.194Z,42.90
2022-10-11T14:44:04.558Z,44.00
2022-10-11T14:46:53.205Z,43.80
2022-10-11T14:49:40.079Z,42.10
2022-10-11T14:52:25.633Z,40.90
2022-10-11T14:55:11.124Z,39.80
2022-10-11T14:57:57.041Z,38.90
2022-10-11T15:00:42.683Z,38.20
2022-10-11T15:03:28.154Z,37.80
2022-10-11T15:06:24.319Z,38.90
2022-10-11T15:09:10.416Z,38.50
2022-10-11T15:11:56.301Z,37.90
2022-10-11T15:14:41.801Z,39.50
2022-10-11T15:17:27.284Z,39.20
2022-10-11T15:20:30.314Z,39.00
2022-10-11T15:23:15.625Z,38.70
2022-10-11T15:26:01.159Z,40.10
2022-10-11T15:28:46.870Z,40.30
2022-10-11T15:31:32.546Z,40.40
2022-10-11T15:34:17.796Z,41.90
2022-10-11T15:37:03.433Z,41.30
2022-10-11T15:39:49.351Z,41.40
2022-10-11T15:42:34.580Z,41.30
2022-10-11T15:45:24.040Z,42.40
2022-10-11T15:48:15.251Z,41.80
2022-10-11T15:51:00.533Z,43.30
2022-10-11T15:53:46.424Z,43.70
2022-10-11T15:56:33.914Z,45.00
2022-10-11T15:59:19.364Z,44.80
2022-10-11T16:02:04.849Z,44.50
2022-10-11T16:04:50.021Z,45.80
2022-10-11T16:07:35.661Z,46.20
2022-10-11T16:10:21.504Z,46.50
2022-10-11T16:13:08.204Z,48.00
2022-10-11T16:15:53.681Z,48.30
2022-10-11T16:18:39.102Z,48.70
2022-10-11T16:21:24.748Z,48.60
2022-10-11T16:24:09.854Z,47.80
2022-10-11T16:26:55.498Z,48.70
2022-10-11T16:29:41.154Z,49.20
2022-10-11T16:32:27.442Z,49.80
2022-10-11T16:35:15.003Z,49.60
2022-10-11T16:38:01.235Z,50.60
2022-10-11T16:40:46.888Z,50.30
2022-10-11T16:43:32.563Z,51.00
2022-10-11T16:46:18.999Z,51.60
2022-10-11T16:49:05.106Z,53.40
2022-10-11T16:51:51.522Z,53.70
2022-10-11T16:54:38.325Z,53.40
2022-10-11T16:57:23.880Z,54.10
2022-10-11T17:00:10.382Z,54.30
2022-10-11T17:02:55.992Z,55.70
2022-10-11T17:05:41.541Z,56.10
2022-10-11T17:08:27.072Z,57.20
2022-10-11T17:11:12.674Z,58.10
2022-10-11T17:14:00.608Z,56.70
2022-10-11T17:16:46.168Z,57.50
2022-10-11T17:19:31.935Z,57.70
2022-10-11T17:22:19.340Z,57.80
2022-10-11T17:25:05.588Z,58.60
2022-10-11T17:27:51.220Z,59.20
2022-10-11T17:30:38.217Z,60.20
2022-10-11T17:33:26.256Z,60.40
2022-10-11T17:36:34.067Z,60.90
2022-10-11T17:39:22.375Z,62.40
2022-10-11T17:42:08.642Z,62.90
2022-10-11T17:44:54.102Z,63.50
2022-10-11T17:47:39.453Z,65.60
2022-10-11T17:50:24.709Z,67.00
2022-10-11T17:53:10.301Z,68.00
2022-10-11T17:55:58.997Z,68.90
2022-10-11T17:58:45.399Z,70.50
2022-10-11T18:01:30.734Z,72.00
2022-10-11T18:04:19.697Z,71.60
2022-10-11T18:07:04.951Z,73.50
2022-10-11T18:09:50.574Z,76.50
2022-10-11T18:12:36.154Z,79.20
2022-10-11T18:15:22.307Z,79.70
2022-10-11T18:18:07.718Z,78.90
2022-10-11T18:20:53.295Z,80.60
2022-10-11T18:23:41.115Z,81.90
2022-10-11T18:26:30.476Z,82.20
2022-10-11T18:29:16.802Z,80.50
2022-10-11T18:32:02.342Z,81.50
2022-10-11T18:34:47.922Z,82.80
2022-10-11T18:37:33.556Z,82.40
2022-10-11T18:40:18.891Z,81.40
2022-10-11T18:43:04.920Z,80.90
2022-10-11T18:45:50.476Z,80.90
2022-10-11T18:48:36.792Z,80.90
2022-10-11T18:51:28.264Z,83.60
2022-10-11T18:54:16.945Z,82.60
2022-10-11T18:57:05.875Z,82.30
2022-10-11T18:59:51.395Z,84.30
2022-10-11T19:02:36.951Z,85.00
2022-10-11T19:05:22.320Z,84.70
2022-10-11T19:08:07.794Z,84.80
2022-10-11T19:10:53.151Z,85.00
2022-10-11T19:13:39.572Z,84.80
2022-10-11T19:16:26.706Z,84.70
2022-10-11T19:19:13.216Z,83.80
2022-10-11T19:21:59.929Z,86.00
2022-10-11T19:24:45.819Z,85.60
2022-10-11T19:27:31.085Z,86.20
2022-10-11T19:30:16.646Z,86.10
2022-10-11T19:33:04.678Z,86.70
2022-10-11T19:35:54.850Z,94.00
2022-10-11T19:38:44.322Z,94.40
2022-10-11T19:41:30.327Z,94.50
2022-10-11T19:44:16.379Z,95.50
2022-10-11T19:47:05.276Z,97.60
2022-10-11T19:49:50.664Z,97.10
2022-10-11T19:52:36.242Z,98.00
2022-10-11T19:55:21.661Z,99.90
2022-10-11T19:58:08.367Z,99.90
2022-10-11T20:01:12.154Z,99.90
2022-10-11T20:04:06.104Z,99.90
2022-10-11T20:06:51.266Z,99.90
2022-10-11T20:09:36.872Z,99.90
2022-10-11T20:12:22.239Z,99.90
2022-10-11T20:15:08.391Z,99.90
2022-10-11T20:17:53.707Z,99.90
2022-10-11T20:20:39.199Z,99.90
2022-10-11T20:23:27.625Z,99.90
2022-10-11T20:26:14.454Z,99.90
2022-10-11T20:28:59.693Z,99.90
2022-10-11T20:31:45.235Z,99.90
2022-10-11T20:34:31.118Z,99.90
2022-10-11T20:37:16.581Z,99.90
2022-10-11T20:40:03.559Z,99.90
2022-10-11T20:42:48.986Z,99.90
2022-10-11T20:45:34.437Z,99.90
2022-10-11T20:48:20.022Z,99.90
2022-10-11T20:51:07.170Z,99.90
2022-10-11T20:53:53.531Z,99.90
2022-10-11T20:56:39.645Z,99.90
2022-10-11T20:59:25.210Z,99.90
2022-10-11T21:02:12.606Z,99.90
2022-10-11T21:05:01.038Z,99.90
2022-10-11T21:07:46.545Z,99.90
2022-10-11T21:10:32.297Z,99.90
2022-10-11T21:13:17.586Z,99.90
2022-10-11T21:16:07.028Z,99.90
2022-10-11T21:18:53.972Z,99.90
2022-10-11T21:21:39.381Z,99.90
2022-10-11T21:24:24.770Z,99.90
2022-10-11T21:27:10.314Z,99.90
2022-10-11T21:29:55.531Z,99.90
2022-10-11T21:32:41.210Z,99.90
2022-10-11T21:35:27.903Z,99.90
2022-10-11T21:38:13.393Z,99.90
2022-10-11T21:40:58.669Z,99.90
2022-10-11T21:43:44.524Z,99.90
2022-10-11T21:49:37.173Z,99.90
2022-10-11T21:52:22.510Z,99.90
2022-10-11T21:55:08.152Z,99.90
2022-10-11T21:57:53.429Z,99.90
2022-10-11T22:00:39.247Z,99.90
2022-10-11T22:03:26.360Z,99.90
2022-10-11T22:06:12.846Z,99.90
2022-10-11T22:08:58.534Z,99.90
2022-10-11T22:11:44.107Z,99.90
2022-10-11T22:14:30.450Z,99.90
2022-10-11T22:17:15.700Z,99.90
2022-10-11T22:20:01.070Z,99.90
2022-10-11T22:22:46.415Z,99.90
2022-10-11T22:25:35.591Z,99.90
2022-10-11T22:28:21.321Z,99.90
2022-10-11T22:31:07.979Z,99.90
2022-10-11T22:33:55.489Z,99.90
2022-10-11T22:36:41.235Z,99.90
2022-10-11T22:39:26.484Z,99.90
2022-10-11T22:42:12.072Z,99.90
2022-10-11T22:44:57.651Z,99.90
2022-10-11T22:47:43.184Z,99.90
2022-10-11T22:50:28.899Z,99.90
2022-10-11T22:53:14.929Z,99.90
2022-10-11T22:56:00.407Z,99.90
2022-10-11T22:58:46.026Z,99.90
2022-10-11T23:01:31.959Z,99.90
2022-10-11T23:04:17.759Z,99.90
2022-10-11T23:07:05.117Z,99.90
2022-10-11T23:09:50.735Z,99.90
2022-10-11T23:12:36.535Z,99.90
2022-10-11T23:15:21.696Z,99.90
2022-10-11T23:18:07.148Z,99.90
2022-10-11T23:20:52.757Z,99.90
2022-10-11T23:23:39.769Z,99.90
2022-10-11T23:26:25.485Z,99.90
2022-10-11T23:29:10.731Z,99.90
2022-10-11T23:31:56.436Z,99.90
2022-10-11T23:34:41.992Z,99.90
2022-10-11T23:37:27.230Z,99.90
2022-10-11T23:40:12.928Z,99.90
2022-10-11T23:42:58.127Z,99.90
2022-10-11T23:45:44.369Z,99.90
2022-10-11T23:48:29.766Z,99.90
2022-10-11T23:51:15.030Z,99.90
2022-10-11T23:54:00.531Z,99.90
2022-10-11T23:56:45.898Z,99.90
2022-10-11T23:59:31.436Z,99.90
